• Join FlightAware (Why Join?)
  • Login
  • US Flag 
02:10PM EDT


 

Airport Tracker/Info


-or-


 

Live Flight TrackerFlight Track Log ✈ JA-738J ✈ 13-Apr-2013 ✈ RJAA / NRT - KLAX

Flight Track Log - Related Links

Times and Time Zones

All times are in EDT time to prevent confusion due to time zone crossing. See the JA-738J flight status page for this flight to view local times or setup timezone preferences in your user account.

Time Position Orientation Groundspeed Altitude Reporting Facility
EDT Latitude Longitude Course Direction KTS MPH feet Rate Location/Type
04:51AM 35.6410 140.4650 149° Southeast 256 295 4,600  Level FlightAware
04:52AM 35.6030 140.4920 150° Southeast 271 312 5,900 2,100 Climbing FlightAware
04:52AM 35.5920 140.5000 149° Southeast 276 318 6,200 2,040 Climbing FlightAware
04:53AM 35.5530 140.5810 121° Southeast 297 342 8,300 2,160 Climbing FlightAware
04:53AM 35.5490 140.6210 97° East 299 344 9,300 1,920 Climbing FlightAware
04:54AM 35.5390 140.7020 99° East 331 381 10,600 1,500 Climbing FlightAware
04:55AM 35.5300 140.7730 99° East 364 419 11,300 1,200 Climbing FlightAware
04:55AM 35.5200 140.8610 98° East 383 441 12,200 1,800 Climbing FlightAware
04:56AM 35.5090 140.9590 98° East 402 463 13,900 2,220 Climbing FlightAware
04:57AM 35.5240 141.0500 79° East 400 460 15,200 1,680 Climbing FlightAware
04:57AM 35.5490 141.1150 65° Northeast 421 484 16,000 1,920 Climbing FlightAware
04:58AM 35.5860 141.2110 65° Northeast 431 496 17,600 2,100 Climbing FlightAware
04:59AM 35.6250 141.3100 64° Northeast 442 509 19,000 2,040 Climbing FlightAware
04:59AM 35.6610 141.4040 65° Northeast 448 516 20,500 1,920 Climbing FlightAware
05:00AM 35.6950 141.4920 65° Northeast 454 522 21,600 1,680 Climbing FlightAware
05:01AM 35.7370 141.6020 65° Northeast 465 535 22,900 1,680 Climbing FlightAware
05:02AM 35.7730 141.6950 64° Northeast 476 548 24,000 1,800 Climbing FlightAware
05:02AM 35.8160 141.8090 65° Northeast 480 552 25,500 1,680 Climbing FlightAware
05:03AM 35.8530 141.9050 65° Northeast 488 562 26,400 1,260 Climbing FlightAware
05:04AM 35.8880 141.9970 65° Northeast 496 571 27,200 1,320 Climbing FlightAware
05:04AM 35.9250 142.0970 65° Northeast 503 579 28,100 1,440 Climbing FlightAware
05:05AM 35.9800 142.2410 65° Northeast 510 587 29,400 1,500 Climbing FlightAware
05:06AM 36.0280 142.3710 65° Northeast 509 586 30,800 960 Climbing FlightAware
05:07AM 36.0740 142.4920 65° Northeast 508 585 31,000 120 Climbing FlightAware
05:07AM 36.1080 142.5850 66° East 509 586 31,000  Level FlightAware
05:08AM 36.1640 142.7350 65° Northeast 508 585 31,000  Level FlightAware
05:09AM 36.2090 142.8570 65° Northeast 508 585 31,000  Level FlightAware
05:10AM 36.2580 142.9910 66° East 509 586 31,000  Level FlightAware
05:11AM 36.2980 143.0990 65° Northeast 509 586 31,000  Level FlightAware
07:10AM 44.3667 164.1000 66° East 579 666 34,000  Climbing Oakland Oceanic (ODAPS)
07:10AM 44.3333 164.0000 66° East 593 682 34,000  Level Oakland Oceanic (ODAPS)
07:16AM 44.7833 165.4833 67° East 593 682 34,000  Level Oakland Oceanic (ODAPS)
07:37AM 46.0000 170.0000 70° East 585 673 34,000  Level Oakland Oceanic (ODAPS)
07:42AM 46.3167 171.3000 71° East 579 666 34,000  Level Oakland Oceanic (ODAPS)
07:46AM 46.5000 172.0500 72° East 577 664 34,000  Level Oakland Oceanic (ODAPS)
07:46AM 46.5000 172.0833 72° East 576 663 34,000  Level Oakland Oceanic (ODAPS)
08:00AM 47.1333 175.0000 74° East 553 636 34,000  Level Oakland Oceanic (ODAPS)
08:09AM 47.5000 176.9667 75° East 536 617 34,000  Level Oakland Oceanic (ODAPS)
08:14AM 47.6833 178.0000 76° East 523 602 34,000  Level Oakland Oceanic (ODAPS)
08:24AM 48.0000 180.0000 78° East 496 571 34,000  Level Oakland Oceanic (ODAPS)
08:36AM 48.3167 -177.6833 79° East 469 540 34,000  Level Oakland Oceanic (ODAPS)
09:03AM 48.8333 -172.6167 83° East 472 543 34,000  Level Oakland Oceanic (ODAPS)
09:16AM 49.0000 -170.0000 77° East 506 582 34,000 120 Level Oakland Oceanic (ODAPS)
09:22AM 49.1752 -168.7484 78° East 506 582 37,000 420 Climbing FlightAware Transoceanic
09:23AM 49.2031 -168.5389 79° East 506 582 37,000  Level FlightAware Transoceanic
09:24AM 49.2306 -168.3292 79° East 506 582 37,000  Level FlightAware Transoceanic
09:25AM 49.2577 -168.1193 79° East 506 582 37,000  Level FlightAware Transoceanic
09:26AM 49.2845 -167.9092 79° East 506 582 37,000  Level FlightAware Transoceanic
09:27AM 49.3108 -167.6988 79° East 506 582 37,000  Level FlightAware Transoceanic
09:28AM 49.3368 -167.4882 79° East 506 582 37,000  Level FlightAware Transoceanic
09:29AM 49.3624 -167.2774 80° East 506 582 37,000 -1,800 Level FlightAware Transoceanic
09:29AM 49.3500 -167.3167 79° East 519 597 34,000  Descending Oakland Oceanic (ODAPS)
09:30AM 49.3876 -167.0664 80° East 506 582 37,000 2,220 Climbing FlightAware Transoceanic
09:31AM 49.4124 -166.8551 80° East 506 582 37,000  Level FlightAware Transoceanic
09:32AM 49.4369 -166.6436 80° East 506 582 37,000  Level FlightAware Transoceanic
09:33AM 49.4609 -166.4320 80° East 506 582 37,000  Level FlightAware Transoceanic
09:34AM 49.4846 -166.2201 80° East 506 582 37,000 -1,500 Level FlightAware Transoceanic
09:35AM 49.4780 -166.2216 80° East 519 597 34,000 -1,500 Descending FlightAware Transoceanic
09:36AM 49.5023 -166.0019 80° East 519 597 34,000  Level FlightAware Transoceanic
09:37AM 49.5262 -165.7820 81° East 519 597 34,000  Level FlightAware Transoceanic
09:38AM 49.5497 -165.5619 81° East 519 597 34,000  Level FlightAware Transoceanic
09:39AM 49.5728 -165.3416 81° East 519 597 34,000  Level FlightAware Transoceanic
09:40AM 49.5955 -165.1211 81° East 519 597 34,000  Level FlightAware Transoceanic
09:41AM 49.6178 -164.9003 81° East 519 597 34,000  Level FlightAware Transoceanic
09:42AM 49.6396 -164.6794 81° East 519 597 34,000  Level FlightAware Transoceanic
09:43AM 49.6610 -164.4583 82° East 519 597 34,000  Level FlightAware Transoceanic
09:44AM 49.6820 -164.2369 82° East 519 597 34,000  Level FlightAware Transoceanic
09:45AM 49.7026 -164.0154 82° East 519 597 34,000  Level FlightAware Transoceanic
09:46AM 49.7227 -163.7937 82° East 519 597 34,000  Level FlightAware Transoceanic
09:47AM 49.7425 -163.5719 82° East 519 597 34,000  Level FlightAware Transoceanic
09:48AM 49.7618 -163.3498 82° East 519 597 34,000  Level FlightAware Transoceanic
09:49AM 49.7806 -163.1276 83° East 519 597 34,000  Level FlightAware Transoceanic
09:50AM 49.7991 -162.9052 83° East 519 597 34,000  Level FlightAware Transoceanic
09:51AM 49.8171 -162.6826 83° East 519 597 34,000  Level FlightAware Transoceanic
09:52AM 49.8347 -162.4598 83° East 519 597 34,000  Level FlightAware Transoceanic
09:53AM 49.8519 -162.2370 83° East 519 597 34,000  Level FlightAware Transoceanic
09:54AM 49.8686 -162.0139 83° East 519 597 34,000  Level FlightAware Transoceanic
09:55AM 49.8849 -161.7907 84° East 519 597 34,000  Level FlightAware Transoceanic
09:56AM 49.9008 -161.5673 84° East 519 597 34,000  Level FlightAware Transoceanic
09:56AM 49.9167 -161.4500 84° East 558 642 34,000  Level Oakland Oceanic (ODAPS)
09:57AM 49.9163 -161.3438 84° East 519 597 34,000  Level FlightAware Transoceanic
09:58AM 49.9313 -161.1202 84° East 519 597 34,000  Level FlightAware Transoceanic
09:59AM 49.9459 -160.8964 84° East 519 597 34,000  Level FlightAware Transoceanic
10:00AM 49.9601 -160.6725 84° East 519 597 34,000  Level FlightAware Transoceanic
10:01AM 49.9738 -160.4485 85° East 519 597 34,000  Level FlightAware Transoceanic
10:02AM 50.0000 -160.0000 95° East 558 642 34,000  Level FlightAware Transoceanic
10:02AM 50.0000 -160.0000 95° East 561 646 34,000  Level Oakland Oceanic (ODAPS)
10:03AM 49.9860 -159.7518 95° East 558 642 34,000  Level FlightAware Transoceanic
10:04AM 49.9714 -159.5038 95° East 558 642 34,000  Level FlightAware Transoceanic
10:05AM 49.9564 -159.2560 95° East 558 642 34,000  Level FlightAware Transoceanic
10:06AM 49.9408 -159.0083 96° East 558 642 34,000  Level FlightAware Transoceanic
10:07AM 49.9246 -158.7608 96° East 558 642 34,000  Level FlightAware Transoceanic
10:08AM 49.9127 -158.5824 96° East 561 646 34,000  Level FlightAware Transoceanic
10:09AM 49.8965 -158.3467 96° East 561 646 34,000  Level FlightAware Transoceanic
10:10AM 49.8798 -158.1111 96° East 561 646 34,000  Level FlightAware Transoceanic
10:11AM 49.8626 -157.8757 97° East 561 646 34,000  Level FlightAware Transoceanic
10:12AM 49.8449 -157.6405 97° East 561 646 34,000  Level FlightAware Transoceanic
10:13AM 49.8268 -157.4054 97° East 561 646 34,000  Level FlightAware Transoceanic
10:14AM 49.8082 -157.1705 97° East 561 646 34,000  Level FlightAware Transoceanic
10:15AM 49.7891 -156.9358 97° East 561 646 34,000  Level FlightAware Transoceanic
10:16AM 49.7695 -156.7013 97° East 561 646 34,000  Level FlightAware Transoceanic
10:17AM 49.7495 -156.4670 98° East 561 646 34,000  Level FlightAware Transoceanic
10:18AM 49.7290 -156.2328 98° East 561 646 34,000  Level FlightAware Transoceanic
10:19AM 49.7080 -155.9989 98° East 561 646 34,000  Level FlightAware Transoceanic
10:20AM 49.6866 -155.7652 98° East 561 646 34,000  Level FlightAware Transoceanic
10:21AM 49.6647 -155.5316 98° East 561 646 34,000  Level FlightAware Transoceanic
10:22AM 49.6423 -155.2983 99° East 561 646 34,000  Level FlightAware Transoceanic
10:23AM 49.6194 -155.0652 99° East 561 646 34,000  Level FlightAware Transoceanic
10:23AM 49.6167 -155.0500 99° East 569 655 34,000  Level Oakland Oceanic (ODAPS)
10:24AM 49.5961 -154.8324 99° East 561 646 34,000  Level FlightAware Transoceanic
10:25AM 49.5723 -154.5997 99° East 561 646 34,000  Level FlightAware Transoceanic
10:26AM 49.5481 -154.3673 99° East 561 646 34,000  Level FlightAware Transoceanic
10:27AM 49.5234 -154.1351 99° East 561 646 34,000  Level FlightAware Transoceanic
10:28AM 49.4982 -153.9032 100° East 561 646 34,000  Level FlightAware Transoceanic
10:29AM 49.4630 -153.5945 100° East 569 655 34,000  Level FlightAware Transoceanic
10:30AM 49.4356 -153.3529 100° East 569 655 34,000  Level FlightAware Transoceanic
10:31AM 49.4077 -153.1115 100° East 569 655 34,000  Level FlightAware Transoceanic
10:32AM 49.3794 -152.8703 100° East 569 655 34,000  Level FlightAware Transoceanic
10:33AM 49.3505 -152.6295 101° East 569 655 34,000  Level FlightAware Transoceanic
10:34AM 49.3211 -152.3889 101° East 569 655 34,000  Level FlightAware Transoceanic
10:35AM 49.2912 -152.1487 101° East 569 655 34,000  Level FlightAware Transoceanic
10:36AM 49.2608 -151.9087 101° East 569 655 34,000  Level FlightAware Transoceanic
10:37AM 49.2299 -151.6690 101° East 569 655 34,000  Level FlightAware Transoceanic
10:38AM 49.1986 -151.4297 101° East 569 655 34,000  Level FlightAware Transoceanic
10:39AM 49.1667 -151.1906 102° East 569 655 34,000  Level FlightAware Transoceanic
10:40AM 49.1343 -150.9518 102° East 569 655 34,000  Level FlightAware Transoceanic
10:41AM 49.1015 -150.7134 102° East 569 655 34,000  Level FlightAware Transoceanic
10:42AM 49.0681 -150.4753 102° East 569 655 34,000  Level FlightAware Transoceanic
10:43AM 49.0343 -150.2375 102° East 569 655 34,000  Level FlightAware Transoceanic
10:44AM 49.0000 -150.0000 95° East 569 655 34,000 720 Level FlightAware Transoceanic
10:44AM 49.0000 -150.0000 95° East 583 671 35,000  Climbing Oakland Oceanic (ODAPS)
10:45AM 48.9860 -149.7520 95° East 569 655 34,000 -660 Descending FlightAware Transoceanic
10:46AM 48.9715 -149.5042 95° East 569 655 34,000  Level FlightAware Transoceanic
10:47AM 48.9565 -149.2564 95° East 569 655 34,000  Level FlightAware Transoceanic
10:48AM 48.9410 -149.0089 96° East 569 655 34,000  Level FlightAware Transoceanic
10:49AM 48.9249 -148.7615 96° East 569 655 34,000 540 Level FlightAware Transoceanic
10:49AM 48.9167 -148.6833 96° East 584 672 35,000 960 Climbing Oakland Oceanic (ODAPS)
10:50AM 48.9107 -148.5496 96° East 583 671 35,000  Level FlightAware Transoceanic
10:51AM 48.8940 -148.3083 96° East 583 671 35,000  Level FlightAware Transoceanic
10:52AM 48.8769 -148.0673 96° East 583 671 35,000  Level FlightAware Transoceanic
10:53AM 48.8592 -147.8264 96° East 583 671 35,000  Level FlightAware Transoceanic
10:54AM 48.8410 -147.5857 97° East 583 671 35,000  Level FlightAware Transoceanic
10:55AM 48.8287 -147.4600 97° East 584 672 35,000  Level FlightAware Transoceanic
10:56AM 48.8096 -147.2159 97° East 584 672 35,000  Level FlightAware Transoceanic
10:57AM 48.7900 -146.9720 97° East 584 672 35,000  Level FlightAware Transoceanic
10:58AM 48.7698 -146.7282 97° East 584 672 35,000  Level FlightAware Transoceanic
10:59AM 48.7491 -146.4847 97° East 584 672 35,000  Level FlightAware Transoceanic
11:00AM 48.7279 -146.2413 98° East 584 672 35,000  Level FlightAware Transoceanic
11:01AM 48.7062 -145.9982 98° East 584 672 35,000  Level FlightAware Transoceanic
11:02AM 48.6840 -145.7552 98° East 584 672 35,000  Level FlightAware Transoceanic
11:03AM 48.6613 -145.5125 98° East 584 672 35,000  Level FlightAware Transoceanic
11:04AM 48.6381 -145.2701 98° East 584 672 35,000  Level FlightAware Transoceanic
11:05AM 48.6143 -145.0278 99° East 584 672 35,000  Level FlightAware Transoceanic
11:06AM 48.5901 -144.7858 99° East 584 672 35,000  Level FlightAware Transoceanic
11:07AM 48.5653 -144.5439 99° East 584 672 35,000  Level FlightAware Transoceanic
11:08AM 48.5400 -144.3024 99° East 584 672 35,000  Level FlightAware Transoceanic
11:09AM 48.5143 -144.0611 99° East 584 672 35,000  Level FlightAware Transoceanic
11:10AM 48.4880 -143.8200 99° East 584 672 35,000  Level FlightAware Transoceanic
11:11AM 48.4612 -143.5792 100° East 584 672 35,000  Level FlightAware Transoceanic
11:12AM 48.4339 -143.3386 100° East 584 672 35,000  Level FlightAware Transoceanic
11:13AM 48.4062 -143.0983 100° East 584 672 35,000  Level FlightAware Transoceanic
11:14AM 48.3779 -142.8583 100° East 584 672 35,000  Level FlightAware Transoceanic
11:15AM 48.3491 -142.6185 100° East 584 672 35,000  Level FlightAware Transoceanic
11:16AM 48.3199 -142.3790 101° East 584 672 35,000  Level FlightAware Transoceanic
11:16AM 48.3000 -142.2167 101° East 585 673 35,000  Level Oakland Oceanic (ODAPS)
11:17AM 48.2901 -142.1398 101° East 584 672 35,000  Level FlightAware Transoceanic
11:18AM 48.2598 -141.9009 101° East 584 672 35,000  Level FlightAware Transoceanic
11:19AM 48.2291 -141.6622 101° East 584 672 35,000  Level FlightAware Transoceanic
11:20AM 48.1978 -141.4239 101° East 584 672 35,000  Level FlightAware Transoceanic
11:21AM 48.1661 -141.1858 101° East 584 672 35,000  Level FlightAware Transoceanic
11:22AM 48.1251 -140.8835 102° East 585 673 35,000  Level FlightAware Transoceanic
11:23AM 48.0945 -140.6623 102° East 585 673 35,000  Level FlightAware Transoceanic
11:24AM 48.0634 -140.4412 102° East 585 673 35,000  Level FlightAware Transoceanic
11:25AM 48.0319 -140.2205 102° East 585 673 35,000  Level FlightAware Transoceanic
11:25AM 48.0000 -140.0000 116° Southeast 583 671 35,000  Level Oakland Oceanic (ODAPS)
11:26AM 48.0000 -140.0000 116° Southeast 585 673 35,000  Level FlightAware Transoceanic
11:27AM 47.9275 -139.7813 116° Southeast 585 673 35,000  Level FlightAware Transoceanic
11:28AM 47.8546 -139.5632 117° Southeast 585 673 35,000  Level FlightAware Transoceanic
11:29AM 47.7812 -139.3458 117° Southeast 585 673 35,000  Level FlightAware Transoceanic
11:30AM 47.7075 -139.1289 117° Southeast 585 673 35,000  Level FlightAware Transoceanic
11:31AM 47.6333 -138.9127 117° Southeast 585 673 35,000  Level FlightAware Transoceanic
11:32AM 47.5588 -138.6971 117° Southeast 583 671 35,000  Level FlightAware Transoceanic
11:33AM 47.4838 -138.4821 117° Southeast 583 671 35,000  Level FlightAware Transoceanic
11:34AM 47.4084 -138.2677 118° Southeast 583 671 35,000  Level FlightAware Transoceanic
11:35AM 47.3327 -138.0539 118° Southeast 583 671 35,000  Level FlightAware Transoceanic
11:36AM 47.2565 -137.8408 118° Southeast 583 671 35,000  Level FlightAware Transoceanic
11:37AM 47.1800 -137.6282 118° Southeast 583 671 35,000  Level FlightAware Transoceanic
11:38AM 47.1030 -137.4163 118° Southeast 583 671 35,000  Level FlightAware Transoceanic
11:39AM 47.0257 -137.2050 118° Southeast 583 671 35,000  Level FlightAware Transoceanic
11:40AM 46.9479 -136.9943 118° Southeast 583 671 35,000  Level FlightAware Transoceanic
11:41AM 46.8698 -136.7842 119° Southeast 583 671 35,000  Level FlightAware Transoceanic
11:42AM 46.7914 -136.5747 119° Southeast 583 671 35,000  Level FlightAware Transoceanic
11:43AM 46.7125 -136.3658 119° Southeast 583 671 35,000  Level FlightAware Transoceanic
11:43AM 46.7000 -136.3500 119° Southeast 580 667 35,000  Level Oakland Oceanic (ODAPS)
11:44AM 46.6332 -136.1576 119° Southeast 583 671 35,000  Level FlightAware Transoceanic
11:45AM 46.5536 -135.9499 119° Southeast 583 671 35,000  Level FlightAware Transoceanic
11:46AM 46.4736 -135.7429 119° Southeast 583 671 35,000  Level FlightAware Transoceanic
11:47AM 46.3932 -135.5365 120° Southeast 583 671 35,000  Level FlightAware Transoceanic
11:48AM 46.3125 -135.3306 120° Southeast 583 671 35,000  Level FlightAware Transoceanic
11:49AM 46.2211 -135.1129 120° Southeast 580 667 35,000  Level FlightAware Transoceanic
11:50AM 46.1400 -134.9088 120° Southeast 580 667 35,000  Level FlightAware Transoceanic
11:51AM 46.0585 -134.7054 120° Southeast 580 667 35,000  Level FlightAware Transoceanic
11:52AM 45.9767 -134.5025 120° Southeast 580 667 35,000  Level FlightAware Transoceanic
11:52AM 45.9333 -134.4000 120° Southeast 577 664 35,000  Level Oakland Oceanic (ODAPS)
11:52AM 45.9333 -134.4000 120° Southeast 578 665 35,000  Level Oakland Oceanic (ODAPS)
11:53AM 45.8945 -134.3002 120° Southeast 580 667 35,000  Level FlightAware Transoceanic
11:54AM 45.8120 -134.0986 121° Southeast 580 667 35,000  Level FlightAware Transoceanic
11:55AM 45.7291 -133.8975 121° Southeast 580 667 35,000  Level FlightAware Transoceanic
11:56AM 45.6458 -133.6970 121° Southeast 580 667 35,000  Level FlightAware Transoceanic
11:57AM 45.5622 -133.4971 121° Southeast 580 667 35,000  Level FlightAware Transoceanic
11:58AM 45.5090 -133.3738 121° Southeast 578 665 35,000  Level FlightAware Transoceanic
11:59AM 45.4230 -133.1705 121° Southeast 578 665 35,000  Level FlightAware Transoceanic
12:00PM 45.3367 -132.9677 121° Southeast 578 665 35,000  Level FlightAware Transoceanic
12:01PM 45.2500 -132.7656 121° Southeast 578 665 35,000  Level FlightAware Transoceanic
12:02PM 45.1629 -132.5641 122° Southeast 578 665 35,000  Level FlightAware Transoceanic
12:03PM 45.0755 -132.3632 122° Southeast 578 665 35,000  Level FlightAware Transoceanic
12:04PM 44.9878 -132.1629 122° Southeast 578 665 35,000  Level FlightAware Transoceanic
12:05PM 44.8997 -131.9632 122° Southeast 578 665 35,000  Level FlightAware Transoceanic
12:06PM 44.8112 -131.7642 122° Southeast 578 665 35,000  Level FlightAware Transoceanic
12:07PM 44.7225 -131.5657 122° Southeast 578 665 35,000  Level FlightAware Transoceanic
12:08PM 44.6333 -131.3679 122° Southeast 578 665 35,000  Level FlightAware Transoceanic
12:09PM 44.5439 -131.1707 123° Southeast 578 665 35,000  Level FlightAware Transoceanic
12:09PM 44.5167 -131.1167 122° Southeast 571 657 35,000  Level Oakland Oceanic (ODAPS)
12:10PM 44.4540 -130.9741 123° Southeast 578 665 35,000  Level FlightAware Transoceanic
12:11PM 44.3639 -130.7780 123° Southeast 578 665 35,000  Level FlightAware Transoceanic
12:12PM 44.2734 -130.5826 123° Southeast 578 665 35,000  Level FlightAware Transoceanic
12:13PM 44.1826 -130.3878 123° Southeast 578 665 35,000  Level FlightAware Transoceanic
12:14PM 44.0915 -130.1936 123° Southeast 578 665 35,000  Level FlightAware Transoceanic
12:15PM 44.0869 -130.1848 123° Southeast 571 657 35,000  Level FlightAware Transoceanic
12:15PM 44.0000 -130.0000 134° Southeast 570 656 35,000  Level Oakland Oceanic (ODAPS)
12:16PM 44.0000 -130.0000 134° Southeast 571 657 35,000  Level FlightAware Transoceanic
12:17PM 43.8871 -129.8360 134° Southeast 571 657 35,000  Level FlightAware Transoceanic
12:17PM 43.8333 -129.7667 134° Southeast 568 654 35,000  Level Oakland Oceanic (ODAPS)
12:18PM 43.7740 -129.6725 134° Southeast 571 657 35,000  Level FlightAware Transoceanic
12:19PM 43.6607 -129.5098 134° Southeast 571 657 35,000  Level FlightAware Transoceanic
12:20PM 43.5471 -129.3476 134° Southeast 571 657 35,000  Level FlightAware Transoceanic
12:20PM 43.5167 -129.3000 134° Southeast 569 655 35,000  Level Oakland Oceanic (ODAPS)
12:21PM 43.4333 -129.1860 134° Southeast 571 657 35,000  Level FlightAware Transoceanic
12:22PM 43.3193 -129.0250 134° Southeast 570 656 35,000  Level FlightAware Transoceanic
12:23PM 43.1678 -128.8184 134° Southeast 568 654 35,000  Level FlightAware Transoceanic
12:24PM 43.0561 -128.6623 134° Southeast 568 654 35,000  Level FlightAware Transoceanic
12:25PM 42.9442 -128.5069 135° Southeast 568 654 35,000  Level FlightAware Transoceanic
12:26PM 42.8416 -128.3581 135° Southeast 569 655 35,000  Level FlightAware Transoceanic
12:27PM 42.7284 -128.2031 135° Southeast 569 655 35,000  Level FlightAware Transoceanic
12:28PM 42.6149 -128.0487 135° Southeast 569 655 35,000  Level FlightAware Transoceanic
12:29PM 42.5013 -127.8948 135° Southeast 569 655 35,000  Level FlightAware Transoceanic
12:30PM 42.3874 -127.7415 135° Southeast 569 655 35,000  Level FlightAware Transoceanic
12:31PM 42.2733 -127.5888 135° Southeast 569 655 35,000  Level FlightAware Transoceanic
12:32PM 42.1591 -127.4366 135° Southeast 569 655 35,000  Level FlightAware Transoceanic
12:33PM 42.0446 -127.2850 136° Southeast 569 655 35,000  Level FlightAware Transoceanic
12:34PM 41.9299 -127.1339 136° Southeast 569 655 35,000  Level FlightAware Transoceanic
12:35PM 41.8151 -126.9833 136° Southeast 569 655 35,000 -600 Level FlightAware Transoceanic
12:35PM 41.7828 -126.9561 134° Southeast 568 654 34,000  Descending Seattle Center
12:36PM 41.7000 -126.8333 133° Southeast 569 655 35,000  Climbing FlightAware Transoceanic
12:36PM 41.6706 -126.8106 136° Southeast 566 651 34,000  Descending Seattle Center
12:37PM 41.5962 -126.6852 133° Southeast 569 655 35,000  Climbing FlightAware Transoceanic
12:37PM 41.5639 -126.6564 133° Southeast 566 651 34,000  Descending Seattle Center
12:38PM 41.4921 -126.5375 133° Southeast 569 655 35,000  Climbing FlightAware Transoceanic
12:38PM 41.4581 -126.5022 132° Southeast 566 651 34,000  Descending Seattle Center
12:39PM 41.3879 -126.3903 133° Southeast 569 655 35,000  Climbing FlightAware Transoceanic
12:39PM 41.3506 -126.3503 133° Southeast 565 650 34,000  Descending Seattle Center
12:40PM 41.2835 -126.2435 134° Southeast 569 655 35,000 -120 Climbing FlightAware Transoceanic
12:40PM 41.2444 -126.1964 132° Southeast 566 651 33,900  Descending Seattle Center
12:41PM 41.1789 -126.0973 134° Southeast 569 655 35,000  Climbing FlightAware Transoceanic
12:41PM 41.1397 -126.0469 133° Southeast 558 642 33,900 -600 Descending Seattle Center
12:42PM 41.0314 -125.8981 134° Southeast 560 644 34,000  Climbing Seattle Center
12:43PM 40.9247 -125.7506 134° Southeast 559 643 34,000  Level Seattle Center
12:44PM 40.8175 -125.6033 134° Southeast 558 642 34,000  Level Seattle Center
12:45PM 40.7103 -125.4567 134° Southeast 558 642 34,000 -60 Level Seattle Center
12:46PM 40.6022 -125.3111 134° Southeast 557 641 33,900  Descending Seattle Center
12:47PM 40.4961 -125.1650 134° Southeast 557 641 34,000  Climbing Seattle Center
12:48PM 40.3667 -124.9914 134° Southeast 557 641 34,000  Level Seattle Center
12:49PM 40.2600 -124.8486 134° Southeast 555 639 34,000  Level Seattle Center
12:50PM 40.2392 -124.8206 134° Southeast 554 638 34,000  Level Oakland Center
12:51PM 40.1325 -124.6775 134° Southeast 555 639 34,000 -180 Level Oakland Center
12:56PM 39.5460 -123.9070 134° Southeast 550 633 33,000 -180 Descending FlightAware
12:57PM 39.4760 -123.8170 135° Southeast 548 631 33,000  Level FlightAware
12:57PM 39.3920 -123.7080 135° Southeast 551 634 33,000  Level FlightAware
12:58PM 39.3210 -123.6170 135° Southeast 551 634 33,000  Level FlightAware
12:59PM 39.2500 -123.5250 135° Southeast 550 633 33,000  Level FlightAware
12:59PM 39.1670 -123.4200 136° Southeast 550 633 33,000  Level FlightAware
01:00PM 39.0950 -123.3280 135° Southeast 547 629 33,000  Level FlightAware
01:01PM 39.0090 -123.2290 138° Southeast 546 628 33,000  Level FlightAware
01:02PM 38.9320 -123.1490 141° Southeast 538 619 33,000  Level FlightAware
01:02PM 38.8520 -123.0680 142° Southeast 538 619 33,000  Level FlightAware
01:03PM 38.7640 -122.9790 142° Southeast 537 618 33,000  Level FlightAware
01:04PM 38.6850 -122.8990 142° Southeast 538 619 33,000  Level FlightAware
01:04PM 38.6040 -122.8170 142° Southeast 537 618 33,000  Level FlightAware
01:05PM 38.5140 -122.7250 141° Southeast 540 621 33,000  Level FlightAware
01:06PM 38.4360 -122.6470 142° Southeast 538 619 33,000  Level FlightAware
01:06PM 38.3470 -122.5580 142° Southeast 537 618 33,000  Level FlightAware
01:07PM 38.2680 -122.4790 142° Southeast 537 618 33,000  Level FlightAware
01:08PM 38.1830 -122.3940 142° Southeast 538 619 33,000  Level FlightAware
01:09PM 38.1030 -122.3150 142° Southeast 537 618 33,000  Level FlightAware
01:09PM 38.0250 -122.2380 142° Southeast 537 618 33,000  Level FlightAware
01:10PM 37.9380 -122.1520 142° Southeast 534 615 33,000  Level FlightAware
01:11PM 37.8600 -122.0750 142° Southeast 527 606 33,000  Level FlightAware
01:11PM 37.7830 -122.0000 142° Southeast 525 604 33,000  Level FlightAware
01:12PM 37.6960 -121.9150 142° Southeast 524 603 33,000  Level FlightAware
01:13PM 37.6190 -121.8390 142° Southeast 521 600 33,000  Level FlightAware
01:13PM 37.5430 -121.7650 142° Southeast 519 597 33,000  Level FlightAware
01:14PM 37.4610 -121.6860 143° Southeast 519 597 33,000  Level FlightAware
01:15PM 37.3860 -121.6130 142° Southeast 519 597 33,000  Level FlightAware
01:15PM 37.3090 -121.5380 142° Southeast 519 597 33,000  Level FlightAware
01:16PM 37.2230 -121.4550 142° Southeast 517 595 33,000  Level FlightAware
01:17PM 37.1460 -121.3820 143° Southeast 517 595 33,000  Level FlightAware
01:18PM 37.0560 -121.2950 142° Southeast 517 595 33,000  Level FlightAware
01:18PM 36.9740 -121.2170 143° Southeast 513 590 33,000  Level FlightAware
01:19PM 36.8920 -121.1300 140° Southeast 512 589 33,000  Level FlightAware
01:20PM 36.8290 -121.0440 132° Southeast 511 588 33,000  Level FlightAware
01:20PM 36.7700 -120.9630 132° Southeast 511 588 33,000  Level FlightAware
01:21PM 36.6930 -120.8580 132° Southeast 511 588 33,000  Level FlightAware
01:22PM 36.6310 -120.7740 133° Southeast 510 587 33,000  Level FlightAware
01:23PM 36.5570 -120.6750 133° Southeast 510 587 33,000  Level FlightAware
01:23PM 36.4920 -120.5900 134° Southeast 512 589 33,000  Level FlightAware
01:24PM 36.4170 -120.5190 143° Southeast 514 592 33,000  Level FlightAware
01:25PM 36.3250 -120.4540 150° Southeast 516 594 33,000  Level FlightAware
01:25PM 36.2410 -120.3950 150° Southeast 514 592 33,000  Level FlightAware
01:26PM 36.1600 -120.3380 150° Southeast 513 590 33,000  Level FlightAware
01:27PM 36.0640 -120.2710 151° Southeast 512 589 33,000  Level FlightAware
01:27PM 35.9840 -120.2140 150° Southeast 512 589 33,000  Level FlightAware
01:28PM 35.8890 -120.1470 150° Southeast 513 590 33,000  Level FlightAware
01:29PM 35.8080 -120.0910 151° Southeast 513 590 33,000  Level FlightAware
01:30PM 35.7160 -120.0270 151° Southeast 513 590 33,000  Level FlightAware
01:30PM 35.6320 -119.9640 149° Southeast 514 592 33,000  Level FlightAware
01:31PM 35.5610 -119.9040 145° Southeast 513 590 33,000  Level FlightAware
01:32PM 35.4800 -119.8340 145° Southeast 509 586 33,000  Level FlightAware
01:32PM 35.3890 -119.7560 145° Southeast 512 589 33,000 -360 Level FlightAware
01:33PM 35.3160 -119.6930 145° Southeast 506 582 32,500 -1,320 Descending FlightAware
01:34PM 35.2390 -119.6270 145° Southeast 490 564 31,300 -2,280 Descending FlightAware
01:34PM 35.1560 -119.5560 145° Southeast 469 540 29,300 -2,280 Descending FlightAware
01:35PM 35.0890 -119.4990 145° Southeast 461 531 28,100 -1,980 Descending FlightAware
01:36PM 35.0060 -119.4280 145° Southeast 453 521 26,500 -1,920 Descending FlightAware
01:37PM 34.9410 -119.3730 145° Southeast 445 512 25,400 -1,680 Descending FlightAware
01:37PM 34.8680 -119.3110 145° Southeast 436 502 24,200 -1,440 Descending FlightAware
01:38PM 34.7990 -119.2530 145° Southeast 414 476 23,400 -1,500 Descending FlightAware
01:39PM 34.7390 -119.2020 145° Southeast 402 463 22,200 -1,860 Descending FlightAware
01:40PM 34.6600 -119.1360 145° Southeast 381 438 20,500 -1,680 Descending FlightAware
01:40PM 34.5950 -119.0810 145° Southeast 352 405 19,400 -1,800 Descending FlightAware
01:41PM 34.5420 -119.0360 145° Southeast 353 406 18,000 -1,740 Descending FlightAware
01:42PM 34.4800 -118.9850 146° Southeast 340 391 17,000 -1,380 Descending FlightAware
01:42PM 34.4290 -118.9410 145° Southeast 336 387 16,100 -1,380 Descending FlightAware
01:43PM 34.3760 -118.8980 146° Southeast 330 380 15,200 -1,320 Descending FlightAware
01:44PM 34.3130 -118.8650 157° South 319 367 14,300 -1,320 Descending FlightAware
01:44PM 34.2570 -118.8440 163° South 321 369 13,400 -1,380 Descending FlightAware
01:45PM 34.1990 -118.8240 164° South 317 365 12,500 -1,320 Descending FlightAware
01:46PM 34.1370 -118.8010 163° South 305 351 11,600 -1,320 Descending FlightAware
01:47PM 34.0810 -118.7800 163° South 302 348 10,700 -1,320 Descending FlightAware
01:47PM 34.0460 -118.7530 147° Southeast 312 359 10,100 -960 Descending FlightAware
01:47PM 34.0360 -118.7300 118° Southeast 310 357 10,000 -120 Descending FlightAware
01:48PM 34.0290 -118.6640 97° East 283 326 10,000 -120 Level FlightAware
01:48PM 34.0260 -118.6180 94° East 279 321 9,900 -780 Descending FlightAware
01:49PM 34.0220 -118.5780 97° East 280 322 9,300 -1,680 Descending FlightAware
01:49PM 34.0180 -118.5330 96° East 277 319 8,400 -1,920 Descending FlightAware
01:50PM 34.0160 -118.5100 96° East 275 316 7,900 -2,100 Descending FlightAware
01:50PM 34.0120 -118.4700 97° East 275 316 7,000 -1,980 Descending FlightAware
01:51PM 34.0140 -118.4260 87° East 267 307 6,100 -1,560 Descending FlightAware
01:51PM 34.0180 -118.3900 82° East 249 287 5,600 -1,320 Descending FlightAware
01:51PM 34.0220 -118.3490 83° East 243 280 4,900 -1,380 Descending FlightAware
01:52PM 34.0250 -118.3270 81° East 239 275 4,600 -960 Descending FlightAware
01:52PM 34.0290 -118.2880 83° East 231 266 4,200 -660 Descending FlightAware
01:53PM 34.0310 -118.2570 86° East 212 244 4,000 -360 Descending FlightAware
01:53PM 34.0340 -118.2250 84° East 192 221 3,900 -600 Descending FlightAware
01:54PM 34.0370 -118.2000 82° East 186 214 3,500 -780 Descending FlightAware
01:54PM 34.0410 -118.1670 82° East 182 209 3,200 -540 Descending FlightAware
01:55PM 34.0330 -118.1320 105° East 178 205 2,900 -480 Descending FlightAware
01:55PM 34.0220 -118.1280 163° South 176 203 2,800 -420 Descending FlightAware
01:55PM 34.0090 -118.1270 176° South 180 207 2,700 -600 Descending FlightAware
01:56PM 33.9810 -118.1420 204° Southwest 179 206 2,300 -480 Descending FlightAware
01:56PM 33.9750 -118.1710 256° West 178 205 2,200 -180 Descending FlightAware
01:57PM 33.9740 -118.1820 264° West 177 204 2,200  Level FlightAware
01:57PM 33.9710 -118.2100 263° West 178 205 2,200  Level FlightAware
01:58PM 33.9690 -118.2400 265° West 180 207 2,200  Level FlightAware
01:58PM 33.9660 -118.2690 263° West 177 204 2,200 -480 Level FlightAware
01:59PM 33.9620 -118.3080 263° West 171 197 1,700 -840 Descending FlightAware
01:59PM 33.9600 -118.3280 263° West 160 184 1,300 -600 Descending FlightAware
01:59PM 33.9590 -118.3350 260° West 160 184 1,300 -720 Level FlightAware
02:00PM 33.9550 -118.3720 263° West 156 180 600 -900 Descending FlightAware
02:01PM 33.9530 -118.3950 264° West 154 177 300 -720 Descending FlightAware